sensor_id;sensor_type;location;lat;lon;timestamp;temperature;humidity
24618;DHT22;12762;51.730;5.356;2023-05-23T00:02:09;16.30;74.20
24618;DHT22;12762;51.730;5.356;2023-05-23T00:04:39;16.20;74.10
24618;DHT22;12762;51.730;5.356;2023-05-23T00:07:06;16.20;74.30
24618;DHT22;12762;51.730;5.356;2023-05-23T00:09:36;16.20;74.40
24618;DHT22;12762;51.730;5.356;2023-05-23T00:12:03;16.20;74.40
24618;DHT22;12762;51.730;5.356;2023-05-23T00:14:30;16.20;74.50
24618;DHT22;12762;51.730;5.356;2023-05-23T00:16:59;16.20;74.50
24618;DHT22;12762;51.730;5.356;2023-05-23T00:19:27;16.20;74.50
24618;DHT22;12762;51.730;5.356;2023-05-23T00:21:54;16.20;74.60
24618;DHT22;12762;51.730;5.356;2023-05-23T00:24:27;16.10;74.60
24618;DHT22;12762;51.730;5.356;2023-05-23T00:26:54;16.10;74.70
24618;DHT22;12762;51.730;5.356;2023-05-23T00:29:20;16.10;74.70
24618;DHT22;12762;51.730;5.356;2023-05-23T00:31:48;16.10;74.70
24618;DHT22;12762;51.730;5.356;2023-05-23T00:34:15;16.10;74.80
24618;DHT22;12762;51.730;5.356;2023-05-23T00:36:45;16.10;74.90
24618;DHT22;12762;51.730;5.356;2023-05-23T00:39:19;16.10;74.90
24618;DHT22;12762;51.730;5.356;2023-05-23T00:41:50;16.10;74.90
24618;DHT22;12762;51.730;5.356;2023-05-23T00:44:19;16.00;74.90
24618;DHT22;12762;51.730;5.356;2023-05-23T00:46:51;16.00;74.90
24618;DHT22;12762;51.730;5.356;2023-05-23T00:49:19;16.00;75.00
24618;DHT22;12762;51.730;5.356;2023-05-23T00:51:47;16.00;75.10
24618;DHT22;12762;51.730;5.356;2023-05-23T00:54:22;16.00;75.10
24618;DHT22;12762;51.730;5.356;2023-05-23T00:56:50;16.00;75.10
24618;DHT22;12762;51.730;5.356;2023-05-23T00:59:17;15.90;75.00
24618;DHT22;12762;51.730;5.356;2023-05-23T01:01:44;15.90;74.90
24618;DHT22;12762;51.730;5.356;2023-05-23T01:04:13;15.90;75.00
24618;DHT22;12762;51.730;5.356;2023-05-23T01:06:42;15.90;75.00
24618;DHT22;12762;51.730;5.356;2023-05-23T01:09:16;15.80;75.00
24618;DHT22;12762;51.730;5.356;2023-05-23T01:11:49;15.80;75.10
24618;DHT22;12762;51.730;5.356;2023-05-23T01:14:25;15.80;75.20
24618;DHT22;12762;51.730;5.356;2023-05-23T01:17:10;15.70;75.10
24618;DHT22;12762;51.730;5.356;2023-05-23T01:19:57;15.70;75.10
24618;DHT22;12762;51.730;5.356;2023-05-23T01:30:09;15.60;75.30
24618;DHT22;12762;51.730;5.356;2023-05-23T01:32:38;15.60;75.50
24618;DHT22;12762;51.730;5.356;2023-05-23T01:35:06;15.60;75.50
24618;DHT22;12762;51.730;5.356;2023-05-23T01:37:33;15.60;75.60
24618;DHT22;12762;51.730;5.356;2023-05-23T01:40:00;15.60;75.60
24618;DHT22;12762;51.730;5.356;2023-05-23T01:42:27;15.60;75.70
24618;DHT22;12762;51.730;5.356;2023-05-23T01:44:55;15.60;75.80
24618;DHT22;12762;51.730;5.356;2023-05-23T01:47:25;15.60;76.00
24618;DHT22;12762;51.730;5.356;2023-05-23T01:49:53;15.60;75.90
24618;DHT22;12762;51.730;5.356;2023-05-23T01:52:21;15.60;76.00
24618;DHT22;12762;51.730;5.356;2023-05-23T01:54:49;15.60;75.90
24618;DHT22;12762;51.730;5.356;2023-05-23T01:57:17;15.60;75.90
24618;DHT22;12762;51.730;5.356;2023-05-23T01:59:45;15.60;75.90
24618;DHT22;12762;51.730;5.356;2023-05-23T02:02:12;15.60;75.80
24618;DHT22;12762;51.730;5.356;2023-05-23T02:04:39;15.60;75.80
24618;DHT22;12762;51.730;5.356;2023-05-23T02:07:06;15.60;75.70
24618;DHT22;12762;51.730;5.356;2023-05-23T02:09:33;15.60;75.60
24618;DHT22;12762;51.730;5.356;2023-05-23T02:12:00;15.60;75.70
24618;DHT22;12762;51.730;5.356;2023-05-23T02:14:27;15.60;75.70
24618;DHT22;12762;51.730;5.356;2023-05-23T02:16:56;15.60;75.60
24618;DHT22;12762;51.730;5.356;2023-05-23T02:19:23;15.60;75.60
24618;DHT22;12762;51.730;5.356;2023-05-23T02:21:50;15.60;75.50
24618;DHT22;12762;51.730;5.356;2023-05-23T02:24:17;15.60;75.50
24618;DHT22;12762;51.730;5.356;2023-05-23T02:26:44;15.60;75.50
24618;DHT22;12762;51.730;5.356;2023-05-23T02:29:11;15.60;75.50
24618;DHT22;12762;51.730;5.356;2023-05-23T02:31:38;15.60;75.60
24618;DHT22;12762;51.730;5.356;2023-05-23T02:34:05;15.60;75.50
24618;DHT22;12762;51.730;5.356;2023-05-23T02:36:32;15.60;75.50
24618;DHT22;12762;51.730;5.356;2023-05-23T02:38:59;15.50;75.50
24618;DHT22;12762;51.730;5.356;2023-05-23T02:41:26;15.50;75.50
24618;DHT22;12762;51.730;5.356;2023-05-23T02:43:53;15.50;75.60
24618;DHT22;12762;51.730;5.356;2023-05-23T02:46:20;15.50;75.60
24618;DHT22;12762;51.730;5.356;2023-05-23T02:48:47;15.50;75.70
24618;DHT22;12762;51.730;5.356;2023-05-23T02:51:14;15.50;75.70
24618;DHT22;12762;51.730;5.356;2023-05-23T02:53:41;15.50;75.60
24618;DHT22;12762;51.730;5.356;2023-05-23T02:56:08;15.50;75.60
24618;DHT22;12762;51.730;5.356;2023-05-23T02:58:35;15.50;75.70
24618;DHT22;12762;51.730;5.356;2023-05-23T03:01:02;15.50;75.60
24618;DHT22;12762;51.730;5.356;2023-05-23T03:03:33;15.40;75.60
24618;DHT22;12762;51.730;5.356;2023-05-23T03:06:01;15.40;75.70
24618;DHT22;12762;51.730;5.356;2023-05-23T03:08:30;15.40;75.70
24618;DHT22;12762;51.730;5.356;2023-05-23T03:10:57;15.40;75.70
24618;DHT22;12762;51.730;5.356;2023-05-23T03:13:27;15.40;75.70
24618;DHT22;12762;51.730;5.356;2023-05-23T03:15:54;15.50;75.80
24618;DHT22;12762;51.730;5.356;2023-05-23T03:18:24;15.50;75.80
24618;DHT22;12762;51.730;5.356;2023-05-23T03:20:51;15.50;75.80
24618;DHT22;12762;51.730;5.356;2023-05-23T03:23:17;15.50;75.90
24618;DHT22;12762;51.730;5.356;2023-05-23T03:25:44;15.40;75.90
24618;DHT22;12762;51.730;5.356;2023-05-23T03:28:11;15.40;75.80
24618;DHT22;12762;51.730;5.356;2023-05-23T03:30:38;15.40;75.90
24618;DHT22;12762;51.730;5.356;2023-05-23T03:33:05;15.40;75.80
24618;DHT22;12762;51.730;5.356;2023-05-23T03:35:33;15.40;75.80
24618;DHT22;12762;51.730;5.356;2023-05-23T03:38:00;15.40;75.80
24618;DHT22;12762;51.730;5.356;2023-05-23T03:40:26;15.40;75.90
24618;DHT22;12762;51.730;5.356;2023-05-23T03:43:04;15.40;76.00
24618;DHT22;12762;51.730;5.356;2023-05-23T03:45:32;15.40;76.10
24618;DHT22;12762;51.730;5.356;2023-05-23T03:47:59;15.30;76.00
24618;DHT22;12762;51.730;5.356;2023-05-23T03:50:26;15.40;76.10
24618;DHT22;12762;51.730;5.356;2023-05-23T03:52:54;15.40;76.10
24618;DHT22;12762;51.730;5.356;2023-05-23T03:55:23;15.30;76.00
24618;DHT22;12762;51.730;5.356;2023-05-23T03:57:51;15.30;76.10
24618;DHT22;12762;51.730;5.356;2023-05-23T04:00:18;15.30;76.00
24618;DHT22;12762;51.730;5.356;2023-05-23T04:02:48;15.30;76.00
24618;DHT22;12762;51.730;5.356;2023-05-23T04:05:17;15.30;77.00
24618;DHT22;12762;51.730;5.356;2023-05-23T04:07:45;15.40;76.20
24618;DHT22;12762;51.730;5.356;2023-05-23T04:10:11;15.40;76.30
24618;DHT22;12762;51.730;5.356;2023-05-23T04:12:38;15.40;76.30
24618;DHT22;12762;51.730;5.356;2023-05-23T04:15:08;15.40;76.30
24618;DHT22;12762;51.730;5.356;2023-05-23T04:17:35;15.40;76.30
24618;DHT22;12762;51.730;5.356;2023-05-23T04:20:08;15.40;76.30
24618;DHT22;12762;51.730;5.356;2023-05-23T04:22:35;15.40;76.70
24618;DHT22;12762;51.730;5.356;2023-05-23T04:25:02;15.40;76.30
24618;DHT22;12762;51.730;5.356;2023-05-23T04:27:29;15.40;76.30
24618;DHT22;12762;51.730;5.356;2023-05-23T04:29:56;15.40;76.30
24618;DHT22;12762;51.730;5.356;2023-05-23T04:32:24;15.40;76.30
24618;DHT22;12762;51.730;5.356;2023-05-23T04:34:51;15.40;76.40
24618;DHT22;12762;51.730;5.356;2023-05-23T04:37:18;15.40;76.40
24618;DHT22;12762;51.730;5.356;2023-05-23T04:39:52;15.30;76.30
24618;DHT22;12762;51.730;5.356;2023-05-23T04:42:21;15.30;76.30
24618;DHT22;12762;51.730;5.356;2023-05-23T04:44:56;15.30;76.50
24618;DHT22;12762;51.730;5.356;2023-05-23T04:47:23;15.30;76.50
24618;DHT22;12762;51.730;5.356;2023-05-23T04:49:54;15.30;76.40
24618;DHT22;12762;51.730;5.356;2023-05-23T04:52:23;15.30;76.30
24618;DHT22;12762;51.730;5.356;2023-05-23T04:54:51;15.30;76.20
24618;DHT22;12762;51.730;5.356;2023-05-23T04:57:19;15.30;76.20
24618;DHT22;12762;51.730;5.356;2023-05-23T04:59:47;15.20;76.00
24618;DHT22;12762;51.730;5.356;2023-05-23T05:02:14;15.20;76.00
24618;DHT22;12762;51.730;5.356;2023-05-23T05:04:41;15.20;76.00
24618;DHT22;12762;51.730;5.356;2023-05-23T05:07:08;15.20;75.90
24618;DHT22;12762;51.730;5.356;2023-05-23T05:09:35;15.10;75.90
24618;DHT22;12762;51.730;5.356;2023-05-23T05:12:02;15.10;75.80
24618;DHT22;12762;51.730;5.356;2023-05-23T05:14:29;15.10;76.00
24618;DHT22;12762;51.730;5.356;2023-05-23T05:16:56;15.10;76.00
24618;DHT22;12762;51.730;5.356;2023-05-23T05:19:28;15.10;76.00
24618;DHT22;12762;51.730;5.356;2023-05-23T05:21:55;15.10;75.90
24618;DHT22;12762;51.730;5.356;2023-05-23T05:24:27;15.00;75.80
24618;DHT22;12762;51.730;5.356;2023-05-23T05:26:55;15.00;75.80
24618;DHT22;12762;51.730;5.356;2023-05-23T05:29:22;15.00;75.90
24618;DHT22;12762;51.730;5.356;2023-05-23T05:31:49;14.90;75.70
24618;DHT22;12762;51.730;5.356;2023-05-23T05:34:17;14.90;75.70
24618;DHT22;12762;51.730;5.356;2023-05-23T05:36:44;14.80;75.60
24618;DHT22;12762;51.730;5.356;2023-05-23T05:39:13;14.80;75.70
24618;DHT22;12762;51.730;5.356;2023-05-23T05:41:40;14.80;75.70
24618;DHT22;12762;51.730;5.356;2023-05-23T05:44:08;14.70;75.70
24618;DHT22;12762;51.730;5.356;2023-05-23T05:46:35;14.70;75.70
24618;DHT22;12762;51.730;5.356;2023-05-23T05:49:02;14.70;75.80
24618;DHT22;12762;51.730;5.356;2023-05-23T05:51:29;14.70;75.70
24618;DHT22;12762;51.730;5.356;2023-05-23T05:53:57;14.60;75.60
24618;DHT22;12762;51.730;5.356;2023-05-23T05:56:27;14.60;75.60
24618;DHT22;12762;51.730;5.356;2023-05-23T05:58:54;14.60;75.60
24618;DHT22;12762;51.730;5.356;2023-05-23T06:01:24;14.60;75.60
24618;DHT22;12762;51.730;5.356;2023-05-23T06:03:55;14.60;75.60
24618;DHT22;12762;51.730;5.356;2023-05-23T06:06:22;14.60;75.60
24618;DHT22;12762;51.730;5.356;2023-05-23T06:08:52;14.60;75.60
24618;DHT22;12762;51.730;5.356;2023-05-23T06:11:19;14.50;75.50
24618;DHT22;12762;51.730;5.356;2023-05-23T06:13:46;14.60;75.60
24618;DHT22;12762;51.730;5.356;2023-05-23T06:16:12;14.60;75.60
24618;DHT22;12762;51.730;5.356;2023-05-23T06:18:40;14.50;75.30
24618;DHT22;12762;51.730;5.356;2023-05-23T06:21:08;14.50;75.30
24618;DHT22;12762;51.730;5.356;2023-05-23T06:23:35;14.50;75.30
24618;DHT22;12762;51.730;5.356;2023-05-23T06:26:02;14.50;75.20
24618;DHT22;12762;51.730;5.356;2023-05-23T06:28:29;14.50;75.20
24618;DHT22;12762;51.730;5.356;2023-05-23T06:30:56;14.40;75.10
24618;DHT22;12762;51.730;5.356;2023-05-23T06:33:23;14.40;75.10
24618;DHT22;12762;51.730;5.356;2023-05-23T06:35:49;14.40;75.10
24618;DHT22;12762;51.730;5.356;2023-05-23T06:38:16;14.50;74.90
24618;DHT22;12762;51.730;5.356;2023-05-23T06:40:43;14.50;74.80
24618;DHT22;12762;51.730;5.356;2023-05-23T06:43:10;14.50;74.60
24618;DHT22;12762;51.730;5.356;2023-05-23T06:45:37;14.50;74.50
24618;DHT22;12762;51.730;5.356;2023-05-23T06:48:04;14.50;74.30
24618;DHT22;12762;51.730;5.356;2023-05-23T06:50:31;14.60;74.10
24618;DHT22;12762;51.730;5.356;2023-05-23T06:52:58;14.70;74.00
24618;DHT22;12762;51.730;5.356;2023-05-23T06:55:25;14.90;74.30
24618;DHT22;12762;51.730;5.356;2023-05-23T06:57:53;15.10;73.40
24618;DHT22;12762;51.730;5.356;2023-05-23T07:00:20;15.20;73.10
24618;DHT22;12762;51.730;5.356;2023-05-23T07:02:47;15.30;72.60
24618;DHT22;12762;51.730;5.356;2023-05-23T07:05:14;15.30;72.10
24618;DHT22;12762;51.730;5.356;2023-05-23T07:07:42;15.30;72.00
24618;DHT22;12762;51.730;5.356;2023-05-23T07:10:09;15.40;72.10
24618;DHT22;12762;51.730;5.356;2023-05-23T07:12:39;15.60;71.80
24618;DHT22;12762;51.730;5.356;2023-05-23T07:15:06;15.60;71.20
24618;DHT22;12762;51.730;5.356;2023-05-23T07:17:33;15.60;71.00
24618;DHT22;12762;51.730;5.356;2023-05-23T07:20:02;15.70;71.00
24618;DHT22;12762;51.730;5.356;2023-05-23T07:22:32;15.70;71.00
24618;DHT22;12762;51.730;5.356;2023-05-23T07:24:59;15.70;71.80
24618;DHT22;12762;51.730;5.356;2023-05-23T07:27:27;15.70;70.60
24618;DHT22;12762;51.730;5.356;2023-05-23T07:29:54;15.60;70.50
24618;DHT22;12762;51.730;5.356;2023-05-23T07:32:23;15.60;70.70
24618;DHT22;12762;51.730;5.356;2023-05-23T07:34:52;15.60;70.50
24618;DHT22;12762;51.730;5.356;2023-05-23T07:37:19;15.60;70.50
24618;DHT22;12762;51.730;5.356;2023-05-23T07:39:46;15.50;70.60
24618;DHT22;12762;51.730;5.356;2023-05-23T07:42:13;15.50;70.60
24618;DHT22;12762;51.730;5.356;2023-05-23T07:44:40;15.50;70.60
24618;DHT22;12762;51.730;5.356;2023-05-23T07:47:09;15.50;70.70
24618;DHT22;12762;51.730;5.356;2023-05-23T07:49:36;15.60;70.70
24618;DHT22;12762;51.730;5.356;2023-05-23T07:52:08;15.60;70.70
24618;DHT22;12762;51.730;5.356;2023-05-23T07:54:35;15.60;70.50
24618;DHT22;12762;51.730;5.356;2023-05-23T07:57:02;15.60;70.50
24618;DHT22;12762;51.730;5.356;2023-05-23T07:59:29;15.60;70.50
24618;DHT22;12762;51.730;5.356;2023-05-23T08:01:56;15.60;70.50
24618;DHT22;12762;51.730;5.356;2023-05-23T08:04:23;15.60;70.50
24618;DHT22;12762;51.730;5.356;2023-05-23T08:06:50;15.60;70.50
24618;DHT22;12762;51.730;5.356;2023-05-23T08:09:30;15.60;70.70
24618;DHT22;12762;51.730;5.356;2023-05-23T08:11:59;15.60;70.80
24618;DHT22;12762;51.730;5.356;2023-05-23T08:14:27;15.60;70.70
24618;DHT22;12762;51.730;5.356;2023-05-23T08:17:14;15.60;70.80
24618;DHT22;12762;51.730;5.356;2023-05-23T08:19:41;15.60;70.80
24618;DHT22;12762;51.730;5.356;2023-05-23T08:22:08;15.60;70.80
24618;DHT22;12762;51.730;5.356;2023-05-23T08:24:35;15.60;70.90
24618;DHT22;12762;51.730;5.356;2023-05-23T08:27:02;15.60;71.10
24618;DHT22;12762;51.730;5.356;2023-05-23T08:29:28;15.60;71.20
24618;DHT22;12762;51.730;5.356;2023-05-23T08:31:55;15.60;71.20
24618;DHT22;12762;51.730;5.356;2023-05-23T08:34:23;15.70;71.30
24618;DHT22;12762;51.730;5.356;2023-05-23T08:36:50;15.80;71.10
24618;DHT22;12762;51.730;5.356;2023-05-23T08:39:18;15.80;70.90
24618;DHT22;12762;51.730;5.356;2023-05-23T08:41:45;15.70;70.80
24618;DHT22;12762;51.730;5.356;2023-05-23T08:44:19;15.70;70.80
24618;DHT22;12762;51.730;5.356;2023-05-23T08:46:46;15.70;70.90
24618;DHT22;12762;51.730;5.356;2023-05-23T08:49:17;15.90;71.20
24618;DHT22;12762;51.730;5.356;2023-05-23T08:51:44;16.00;70.90
24618;DHT22;12762;51.730;5.356;2023-05-23T08:54:12;16.10;70.70
24618;DHT22;12762;51.730;5.356;2023-05-23T08:56:42;16.20;70.30
24618;DHT22;12762;51.730;5.356;2023-05-23T08:59:10;16.30;70.00
24618;DHT22;12762;51.730;5.356;2023-05-23T09:01:38;16.30;69.60
24618;DHT22;12762;51.730;5.356;2023-05-23T09:04:07;16.30;69.00
24618;DHT22;12762;51.730;5.356;2023-05-23T09:06:34;16.40;68.90
24618;DHT22;12762;51.730;5.356;2023-05-23T09:09:01;16.40;68.80
24618;DHT22;12762;51.730;5.356;2023-05-23T09:11:28;16.40;68.80
24618;DHT22;12762;51.730;5.356;2023-05-23T09:13:55;16.50;68.70
24618;DHT22;12762;51.730;5.356;2023-05-23T09:16:23;16.60;68.40
24618;DHT22;12762;51.730;5.356;2023-05-23T09:18:57;16.70;68.30
24618;DHT22;12762;51.730;5.356;2023-05-23T09:21:24;16.80;67.90
24618;DHT22;12762;51.730;5.356;2023-05-23T09:23:53;16.90;67.50
24618;DHT22;12762;51.730;5.356;2023-05-23T09:26:21;17.00;67.00
24618;DHT22;12762;51.730;5.356;2023-05-23T09:28:48;17.00;66.70
24618;DHT22;12762;51.730;5.356;2023-05-23T09:31:15;17.10;67.00
24618;DHT22;12762;51.730;5.356;2023-05-23T09:33:44;17.30;66.90
24618;DHT22;12762;51.730;5.356;2023-05-23T09:36:13;17.40;66.50
24618;DHT22;12762;51.730;5.356;2023-05-23T09:38:40;17.60;66.20
24618;DHT22;12762;51.730;5.356;2023-05-23T09:41:09;17.80;65.90
24618;DHT22;12762;51.730;5.356;2023-05-23T09:43:48;18.00;65.10
24618;DHT22;12762;51.730;5.356;2023-05-23T09:46:15;18.00;64.70
24618;DHT22;12762;51.730;5.356;2023-05-23T09:48:48;18.10;65.00
24618;DHT22;12762;51.730;5.356;2023-05-23T09:51:21;18.40;65.20
24618;DHT22;12762;51.730;5.356;2023-05-23T09:53:49;18.90;64.90
24618;DHT22;12762;51.730;5.356;2023-05-23T09:56:18;19.30;64.30
24618;DHT22;12762;51.730;5.356;2023-05-23T09:58:49;19.60;63.40
24618;DHT22;12762;51.730;5.356;2023-05-23T10:01:16;19.80;62.60
24618;DHT22;12762;51.730;5.356;2023-05-23T10:03:48;20.00;61.80
24618;DHT22;12762;51.730;5.356;2023-05-23T10:06:41;20.10;61.50
24618;DHT22;12762;51.730;5.356;2023-05-23T10:09:16;20.30;61.80
24618;DHT22;12762;51.730;5.356;2023-05-23T10:14:45;20.90;61.10
24618;DHT22;12762;51.730;5.356;2023-05-23T10:20:10;21.60;59.80
24618;DHT22;12762;51.730;5.356;2023-05-23T10:22:41;21.70;59.00
24618;DHT22;12762;51.730;5.356;2023-05-23T10:25:08;21.70;58.60
24618;DHT22;12762;51.730;5.356;2023-05-23T10:27:39;21.60;58.50
24618;DHT22;12762;51.730;5.356;2023-05-23T10:30:07;21.60;58.80
24618;DHT22;12762;51.730;5.356;2023-05-23T10:32:36;21.70;57.80
24618;DHT22;12762;51.730;5.356;2023-05-23T10:43:50;22.00;56.50
24618;DHT22;12762;51.730;5.356;2023-05-23T10:46:21;22.00;56.20
24618;DHT22;12762;51.730;5.356;2023-05-23T10:48:53;21.90;56.30
24618;DHT22;12762;51.730;5.356;2023-05-23T10:51:22;21.90;56.30
24618;DHT22;12762;51.730;5.356;2023-05-23T10:53:53;22.00;56.70
24618;DHT22;12762;51.730;5.356;2023-05-23T10:56:22;22.10;56.50
24618;DHT22;12762;51.730;5.356;2023-05-23T10:58:53;22.10;56.00
24618;DHT22;12762;51.730;5.356;2023-05-23T11:01:23;22.00;56.00
24618;DHT22;12762;51.730;5.356;2023-05-23T11:03:52;22.00;55.90
24618;DHT22;12762;51.730;5.356;2023-05-23T11:09:05;22.10;55.70
24618;DHT22;12762;51.730;5.356;2023-05-23T11:12:04;22.10;55.10
24618;DHT22;12762;51.730;5.356;2023-05-23T11:14:33;22.00;55.60
24618;DHT22;12762;51.730;5.356;2023-05-23T11:17:14;22.10;55.40
24618;DHT22;12762;51.730;5.356;2023-05-23T11:20:05;22.20;55.50
24618;DHT22;12762;51.730;5.356;2023-05-23T11:22:33;22.30;55.40
24618;DHT22;12762;51.730;5.356;2023-05-23T11:25:06;22.30;54.70
24618;DHT22;12762;51.730;5.356;2023-05-23T11:27:36;22.20;54.50
24618;DHT22;12762;51.730;5.356;2023-05-23T11:30:14;22.10;54.20
24618;DHT22;12762;51.730;5.356;2023-05-23T11:32:52;22.20;54.80
24618;DHT22;12762;51.730;5.356;2023-05-23T11:35:20;22.40;54.40
24618;DHT22;12762;51.730;5.356;2023-05-23T11:37:47;22.70;54.30
24618;DHT22;12762;51.730;5.356;2023-05-23T11:40:34;22.90;53.70
24618;DHT22;12762;51.730;5.356;2023-05-23T11:43:03;23.10;53.90
24618;DHT22;12762;51.730;5.356;2023-05-23T11:45:31;23.30;53.50
24618;DHT22;12762;51.730;5.356;2023-05-23T11:48:10;23.30;53.00
24618;DHT22;12762;51.730;5.356;2023-05-23T11:53:12;23.00;52.30
24618;DHT22;12762;51.730;5.356;2023-05-23T11:55:40;22.90;52.30
24618;DHT22;12762;51.730;5.356;2023-05-23T11:58:14;22.80;52.60
24618;DHT22;12762;51.730;5.356;2023-05-23T12:00:44;22.80;53.00
24618;DHT22;12762;51.730;5.356;2023-05-23T12:03:11;22.80;52.90
24618;DHT22;12762;51.730;5.356;2023-05-23T12:05:42;23.00;52.70
24618;DHT22;12762;51.730;5.356;2023-05-23T12:08:11;23.10;52.30
24618;DHT22;12762;51.730;5.356;2023-05-23T12:10:51;23.00;52.00
24618;DHT22;12762;51.730;5.356;2023-05-23T12:13:25;22.90;51.80
24618;DHT22;12762;51.730;5.356;2023-05-23T12:16:01;22.90;52.40
24618;DHT22;12762;51.730;5.356;2023-05-23T12:18:29;22.90;51.50
24618;DHT22;12762;51.730;5.356;2023-05-23T12:21:03;22.80;51.60
24618;DHT22;12762;51.730;5.356;2023-05-23T12:23:32;22.80;51.20
24618;DHT22;12762;51.730;5.356;2023-05-23T12:26:04;22.80;51.20
24618;DHT22;12762;51.730;5.356;2023-05-23T12:28:41;22.60;51.40
24618;DHT22;12762;51.730;5.356;2023-05-23T12:31:17;22.40;51.20
24618;DHT22;12762;51.730;5.356;2023-05-23T12:33:45;22.30;51.60
24618;DHT22;12762;51.730;5.356;2023-05-23T12:36:15;22.30;51.70
24618;DHT22;12762;51.730;5.356;2023-05-23T12:38:47;22.20;51.20
24618;DHT22;12762;51.730;5.356;2023-05-23T12:41:16;22.10;50.80
24618;DHT22;12762;51.730;5.356;2023-05-23T12:43:50;22.10;51.30
24618;DHT22;12762;51.730;5.356;2023-05-23T12:46:19;22.40;51.50
24618;DHT22;12762;51.730;5.356;2023-05-23T12:48:46;22.70;51.30
24618;DHT22;12762;51.730;5.356;2023-05-23T12:51:13;22.80;50.70
24618;DHT22;12762;51.730;5.356;2023-05-23T12:53:40;22.80;50.30
24618;DHT22;12762;51.730;5.356;2023-05-23T12:56:10;22.80;50.70
24618;DHT22;12762;51.730;5.356;2023-05-23T12:58:40;22.70;50.70
24618;DHT22;12762;51.730;5.356;2023-05-23T13:01:06;22.60;50.70
24618;DHT22;12762;51.730;5.356;2023-05-23T13:03:33;22.50;50.60
24618;DHT22;12762;51.730;5.356;2023-05-23T13:06:03;22.40;50.70
24618;DHT22;12762;51.730;5.356;2023-05-23T13:08:30;22.40;51.10
24618;DHT22;12762;51.730;5.356;2023-05-23T13:10:57;22.20;50.90
24618;DHT22;12762;51.730;5.356;2023-05-23T13:13:25;22.10;50.80
24618;DHT22;12762;51.730;5.356;2023-05-23T13:15:52;22.10;50.70
24618;DHT22;12762;51.730;5.356;2023-05-23T13:18:19;22.10;50.50
24618;DHT22;12762;51.730;5.356;2023-05-23T13:20:46;22.10;50.20
24618;DHT22;12762;51.730;5.356;2023-05-23T13:23:13;22.00;50.00
24618;DHT22;12762;51.730;5.356;2023-05-23T13:25:43;21.90;49.80
24618;DHT22;12762;51.730;5.356;2023-05-23T13:28:10;21.90;49.90
24618;DHT22;12762;51.730;5.356;2023-05-23T13:30:37;21.80;50.00
24618;DHT22;12762;51.730;5.356;2023-05-23T13:33:04;21.80;50.00
24618;DHT22;12762;51.730;5.356;2023-05-23T13:35:31;21.80;49.70
24618;DHT22;12762;51.730;5.356;2023-05-23T13:37:58;21.80;49.40
24618;DHT22;12762;51.730;5.356;2023-05-23T13:40:25;21.60;49.30
24618;DHT22;12762;51.730;5.356;2023-05-23T13:42:52;21.50;49.20
24618;DHT22;12762;51.730;5.356;2023-05-23T13:45:19;21.40;49.50
24618;DHT22;12762;51.730;5.356;2023-05-23T13:47:48;21.40;49.90
24618;DHT22;12762;51.730;5.356;2023-05-23T13:50:15;21.50;50.00
24618;DHT22;12762;51.730;5.356;2023-05-23T13:52:42;21.60;50.00
24618;DHT22;12762;51.730;5.356;2023-05-23T13:55:15;21.60;49.80
24618;DHT22;12762;51.730;5.356;2023-05-23T13:57:43;21.50;49.80
24618;DHT22;12762;51.730;5.356;2023-05-23T14:00:11;21.60;50.10
24618;DHT22;12762;51.730;5.356;2023-05-23T14:02:38;21.70;49.80
24618;DHT22;12762;51.730;5.356;2023-05-23T14:05:05;21.80;49.70
24618;DHT22;12762;51.730;5.356;2023-05-23T14:07:33;21.80;49.40
24618;DHT22;12762;51.730;5.356;2023-05-23T14:10:01;21.70;49.20
24618;DHT22;12762;51.730;5.356;2023-05-23T14:12:28;21.70;49.40
24618;DHT22;12762;51.730;5.356;2023-05-23T14:14:55;21.60;49.20
24618;DHT22;12762;51.730;5.356;2023-05-23T14:17:22;21.50;49.40
24618;DHT22;12762;51.730;5.356;2023-05-23T14:19:49;21.60;49.70
24618;DHT22;12762;51.730;5.356;2023-05-23T14:22:16;21.80;49.90
24618;DHT22;12762;51.730;5.356;2023-05-23T14:24:46;22.10;49.50
24618;DHT22;12762;51.730;5.356;2023-05-23T14:27:16;22.20;48.90
24618;DHT22;12762;51.730;5.356;2023-05-23T14:29:44;22.20;48.30
24618;DHT22;12762;51.730;5.356;2023-05-23T14:32:12;22.00;48.30
24618;DHT22;12762;51.730;5.356;2023-05-23T14:34:39;21.90;48.40
24618;DHT22;12762;51.730;5.356;2023-05-23T14:37:07;21.80;48.40
24618;DHT22;12762;51.730;5.356;2023-05-23T14:39:33;21.90;48.70
24618;DHT22;12762;51.730;5.356;2023-05-23T14:42:01;22.00;48.70
24618;DHT22;12762;51.730;5.356;2023-05-23T14:44:28;22.30;48.70
24618;DHT22;12762;51.730;5.356;2023-05-23T14:46:55;22.40;48.40
24618;DHT22;12762;51.730;5.356;2023-05-23T14:49:22;22.50;47.80
24618;DHT22;12762;51.730;5.356;2023-05-23T14:51:49;22.40;47.70
24618;DHT22;12762;51.730;5.356;2023-05-23T14:54:17;22.30;47.60
24618;DHT22;12762;51.730;5.356;2023-05-23T14:56:44;22.20;47.40
24618;DHT22;12762;51.730;5.356;2023-05-23T14:59:11;22.00;47.40
24618;DHT22;12762;51.730;5.356;2023-05-23T15:01:38;21.80;47.70
24618;DHT22;12762;51.730;5.356;2023-05-23T15:04:07;21.70;47.90
24618;DHT22;12762;51.730;5.356;2023-05-23T15:06:36;21.80;48.20
24618;DHT22;12762;51.730;5.356;2023-05-23T15:09:03;21.80;47.60
24618;DHT22;12762;51.730;5.356;2023-05-23T15:11:30;21.70;47.50
24618;DHT22;12762;51.730;5.356;2023-05-23T15:13:58;21.70;47.50
24618;DHT22;12762;51.730;5.356;2023-05-23T15:16:25;21.60;47.50
24618;DHT22;12762;51.730;5.356;2023-05-23T15:18:52;21.50;47.00
24618;DHT22;12762;51.730;5.356;2023-05-23T15:21:19;21.40;47.20
24618;DHT22;12762;51.730;5.356;2023-05-23T15:23:46;21.30;47.20
24618;DHT22;12762;51.730;5.356;2023-05-23T15:26:13;21.30;47.20
24618;DHT22;12762;51.730;5.356;2023-05-23T15:28:40;21.30;47.20
24618;DHT22;12762;51.730;5.356;2023-05-23T15:31:07;21.20;47.30
24618;DHT22;12762;51.730;5.356;2023-05-23T15:33:34;21.20;47.60
24618;DHT22;12762;51.730;5.356;2023-05-23T15:36:01;21.30;47.60
24618;DHT22;12762;51.730;5.356;2023-05-23T15:38:28;21.30;47.40
24618;DHT22;12762;51.730;5.356;2023-05-23T15:40:54;21.20;47.20
24618;DHT22;12762;51.730;5.356;2023-05-23T15:43:22;21.00;47.30
24618;DHT22;12762;51.730;5.356;2023-05-23T15:45:50;20.90;47.20
24618;DHT22;12762;51.730;5.356;2023-05-23T15:48:18;20.70;47.30
24618;DHT22;12762;51.730;5.356;2023-05-23T15:50:45;20.70;47.70
24618;DHT22;12762;51.730;5.356;2023-05-23T15:53:12;20.70;47.60
24618;DHT22;12762;51.730;5.356;2023-05-23T15:55:39;20.70;47.40
24618;DHT22;12762;51.730;5.356;2023-05-23T15:58:09;20.90;47.60
24618;DHT22;12762;51.730;5.356;2023-05-23T16:00:36;21.10;47.70
24618;DHT22;12762;51.730;5.356;2023-05-23T16:03:03;21.20;47.50
24618;DHT22;12762;51.730;5.356;2023-05-23T16:05:30;21.20;47.10
24618;DHT22;12762;51.730;5.356;2023-05-23T16:07:57;21.10;46.90